sensor_id;sensor_type;location;lat;lon;timestamp;pressure;altitude;pressure_sealevel;temperature;humidity
70976;BME280;58635;51.198;6.010;2023-03-14T00:01:16;98948.19;;;15.04;58.77
70976;BME280;58635;51.198;6.010;2023-03-14T00:03:43;98932.56;;;14.99;58.90
70976;BME280;58635;51.198;6.010;2023-03-14T00:06:09;98933.88;;;14.96;59.17
70976;BME280;58635;51.198;6.010;2023-03-14T00:08:36;98927.91;;;14.96;59.67
70976;BME280;58635;51.198;6.010;2023-03-14T00:11:09;98928.44;;;14.87;59.61
70976;BME280;58635;51.198;6.010;2023-03-14T00:13:36;98918.06;;;14.82;59.88
70976;BME280;58635;51.198;6.010;2023-03-14T00:16:06;98915.97;;;14.79;59.98
70976;BME280;58635;51.198;6.010;2023-03-14T00:18:32;98919.91;;;14.77;59.92
70976;BME280;58635;51.198;6.010;2023-03-14T00:20:59;98925.41;;;14.70;60.12
70976;BME280;58635;51.198;6.010;2023-03-14T00:23:24;98933.47;;;14.69;60.08
70976;BME280;58635;51.198;6.010;2023-03-14T00:25:50;98938.13;;;14.67;60.09
70976;BME280;58635;51.198;6.010;2023-03-14T00:28:15;98943.88;;;14.63;60.14
70976;BME280;58635;51.198;6.010;2023-03-14T00:30:40;98949.09;;;14.58;60.18
70976;BME280;58635;51.198;6.010;2023-03-14T00:33:06;98948.59;;;14.51;60.28
70976;BME280;58635;51.198;6.010;2023-03-14T00:35:31;98948.88;;;14.45;60.51
70976;BME280;58635;51.198;6.010;2023-03-14T00:37:57;98955.63;;;14.36;60.42
70976;BME280;58635;51.198;6.010;2023-03-14T00:40:22;98955.09;;;14.33;60.45
70976;BME280;58635;51.198;6.010;2023-03-14T00:42:47;98955.34;;;14.32;60.39
70976;BME280;58635;51.198;6.010;2023-03-14T00:45:13;98959.00;;;14.31;60.17
70976;BME280;58635;51.198;6.010;2023-03-14T00:47:38;98958.22;;;14.30;60.08
70976;BME280;58635;51.198;6.010;2023-03-14T00:50:04;98952.75;;;14.27;60.13
70976;BME280;58635;51.198;6.010;2023-03-14T00:52:29;98951.22;;;14.26;60.04
70976;BME280;58635;51.198;6.010;2023-03-14T00:54:55;98963.69;;;14.19;59.98
70976;BME280;58635;51.198;6.010;2023-03-14T00:57:20;98957.72;;;14.13;59.81
70976;BME280;58635;51.198;6.010;2023-03-14T00:59:45;98958.25;;;14.10;59.94
70976;BME280;58635;51.198;6.010;2023-03-14T01:02:11;98957.47;;;14.10;59.77
70976;BME280;58635;51.198;6.010;2023-03-14T01:04:36;98968.66;;;14.10;59.78
70976;BME280;58635;51.198;6.010;2023-03-14T01:07:03;98950.44;;;14.10;59.57
70976;BME280;58635;51.198;6.010;2023-03-14T01:09:28;98948.06;;;14.09;59.61
70976;BME280;58635;51.198;6.010;2023-03-14T01:11:53;98945.22;;;14.05;59.59
70976;BME280;58635;51.198;6.010;2023-03-14T01:14:19;98942.13;;;14.03;59.69
70976;BME280;58635;51.198;6.010;2023-03-14T01:16:44;98943.16;;;14.02;59.67
70976;BME280;58635;51.198;6.010;2023-03-14T01:19:10;98946.03;;;14.00;59.62
70976;BME280;58635;51.198;6.010;2023-03-14T01:21:35;98927.31;;;13.98;59.63
70976;BME280;58635;51.198;6.010;2023-03-14T01:24:02;98939.00;;;13.96;59.77
70976;BME280;58635;51.198;6.010;2023-03-14T01:26:30;98929.63;;;13.95;59.71
70976;BME280;58635;51.198;6.010;2023-03-14T01:28:56;98917.94;;;13.92;59.78
70976;BME280;58635;51.198;6.010;2023-03-14T01:31:23;98925.47;;;13.94;59.74
70976;BME280;58635;51.198;6.010;2023-03-14T01:33:49;98930.16;;;13.92;59.76
70976;BME280;58635;51.198;6.010;2023-03-14T01:36:15;98916.91;;;13.88;59.97
70976;BME280;58635;51.198;6.010;2023-03-14T01:38:40;98926.00;;;13.91;60.01
70976;BME280;58635;51.198;6.010;2023-03-14T01:41:07;98913.28;;;13.89;59.92
70976;BME280;58635;51.198;6.010;2023-03-14T01:43:34;98904.44;;;13.90;60.18
70976;BME280;58635;51.198;6.010;2023-03-14T01:51:11;98915.59;;;13.91;60.47
70976;BME280;58635;51.198;6.010;2023-03-14T01:53:41;98902.63;;;13.91;60.56
70976;BME280;58635;51.198;6.010;2023-03-14T01:56:11;98904.69;;;13.89;60.63
70976;BME280;58635;51.198;6.010;2023-03-14T01:58:38;98902.38;;;13.87;60.71
70976;BME280;58635;51.198;6.010;2023-03-14T02:01:06;98892.22;;;13.81;60.65
70976;BME280;58635;51.198;6.010;2023-03-14T02:03:38;98886.00;;;13.77;60.67
70976;BME280;58635;51.198;6.010;2023-03-14T02:06:10;98882.63;;;13.76;60.69
70976;BME280;58635;51.198;6.010;2023-03-14T02:08:37;98886.25;;;13.75;60.84
70976;BME280;58635;51.198;6.010;2023-03-14T02:11:05;98884.69;;;13.79;60.73
70976;BME280;58635;51.198;6.010;2023-03-14T02:13:32;98881.81;;;13.81;60.65
70976;BME280;58635;51.198;6.010;2023-03-14T02:15:57;98886.50;;;13.79;60.41
70976;BME280;58635;51.198;6.010;2023-03-14T02:18:23;98884.94;;;13.78;60.59
70976;BME280;58635;51.198;6.010;2023-03-14T02:20:51;98888.84;;;13.75;60.66
70976;BME280;58635;51.198;6.010;2023-03-14T02:26:06;98881.84;;;13.75;60.41
70976;BME280;58635;51.198;6.010;2023-03-14T02:28:33;98890.41;;;13.76;60.51
70976;BME280;58635;51.198;6.010;2023-03-14T02:30:58;98891.19;;;13.77;60.26
70976;BME280;58635;51.198;6.010;2023-03-14T02:33:24;98889.63;;;13.75;60.37
70976;BME280;58635;51.198;6.010;2023-03-14T02:35:58;98889.88;;;13.79;60.24
70976;BME280;58635;51.198;6.010;2023-03-14T02:38:31;98888.31;;;13.78;60.19
70976;BME280;58635;51.198;6.010;2023-03-14T02:40:58;98888.06;;;13.80;60.08
70976;BME280;58635;51.198;6.010;2023-03-14T02:43:24;98888.31;;;13.78;60.14
70976;BME280;58635;51.198;6.010;2023-03-14T02:45:51;98883.91;;;13.79;60.26
70976;BME280;58635;51.198;6.010;2023-03-14T02:48:33;98881.31;;;13.79;60.09
70976;BME280;58635;51.198;6.010;2023-03-14T02:51:00;98879.50;;;13.79;60.12
70976;BME280;58635;51.198;6.010;2023-03-14T02:53:29;98878.69;;;13.84;59.93
70976;BME280;58635;51.198;6.010;2023-03-14T02:55:55;98880.50;;;13.83;59.86
70976;BME280;58635;51.198;6.010;2023-03-14T02:58:21;98886.50;;;13.84;59.95
70976;BME280;58635;51.198;6.010;2023-03-14T03:00:47;98881.84;;;13.86;59.80
70976;BME280;58635;51.198;6.010;2023-03-14T03:03:13;98882.84;;;13.85;59.75
70976;BME280;58635;51.198;6.010;2023-03-14T03:05:38;98876.09;;;13.84;59.85
70976;BME280;58635;51.198;6.010;2023-03-14T03:08:04;98876.63;;;13.86;59.80
70976;BME280;58635;51.198;6.010;2023-03-14T03:10:30;98877.13;;;13.83;59.82
70976;BME280;58635;51.198;6.010;2023-03-14T03:12:56;98875.88;;;13.85;59.89
70976;BME280;58635;51.198;6.010;2023-03-14T03:15:22;98869.84;;;13.85;59.87
70976;BME280;58635;51.198;6.010;2023-03-14T03:17:48;98867.53;;;13.83;59.95
70976;BME280;58635;51.198;6.010;2023-03-14T03:20:13;98863.09;;;13.84;59.93
70976;BME280;58635;51.198;6.010;2023-03-14T03:22:39;98871.44;;;13.86;60.12
70976;BME280;58635;51.198;6.010;2023-03-14T03:25:06;98858.19;;;13.82;60.44
70976;BME280;58635;51.198;6.010;2023-03-14T03:27:33;98866.22;;;13.81;60.88
70976;BME280;58635;51.198;6.010;2023-03-14T03:29:59;98868.84;;;13.75;61.24
70976;BME280;58635;51.198;6.010;2023-03-14T03:32:25;98867.78;;;13.71;61.49
70976;BME280;58635;51.198;6.010;2023-03-14T03:34:51;98864.16;;;13.67;61.90
70976;BME280;58635;51.198;6.010;2023-03-14T03:37:16;98861.31;;;13.64;62.51
70976;BME280;58635;51.198;6.010;2023-03-14T03:39:42;98853.00;;;13.57;62.59
70976;BME280;58635;51.198;6.010;2023-03-14T03:42:07;98854.03;;;13.51;62.67
70976;BME280;58635;51.198;6.010;2023-03-14T03:44:32;98856.63;;;13.45;62.73
70976;BME280;58635;51.198;6.010;2023-03-14T03:46:58;98854.28;;;13.39;62.92
70976;BME280;58635;51.198;6.010;2023-03-14T03:49:23;98843.88;;;13.34;63.15
70976;BME280;58635;51.198;6.010;2023-03-14T03:51:49;98844.94;;;13.28;63.04
70976;BME280;58635;51.198;6.010;2023-03-14T03:54:14;98846.75;;;13.27;63.07
70976;BME280;58635;51.198;6.010;2023-03-14T03:56:40;98848.78;;;13.25;62.95
70976;BME280;58635;51.198;6.010;2023-03-14T03:59:05;98849.84;;;13.19;62.87
70976;BME280;58635;51.198;6.010;2023-03-14T04:01:30;98851.38;;;13.15;63.23
70976;BME280;58635;51.198;6.010;2023-03-14T04:03:56;98856.56;;;13.15;63.37
70976;BME280;58635;51.198;6.010;2023-03-14T04:06:22;98860.94;;;13.09;63.83
70976;BME280;58635;51.198;6.010;2023-03-14T04:08:48;98859.66;;;13.07;63.89
70976;BME280;58635;51.198;6.010;2023-03-14T04:11:13;98863.28;;;13.06;63.79
70976;BME280;58635;51.198;6.010;2023-03-14T04:13:39;98858.88;;;13.06;63.72
70976;BME280;58635;51.198;6.010;2023-03-14T04:16:12;98862.25;;;13.07;63.77
70976;BME280;58635;51.198;6.010;2023-03-14T04:18:39;98853.66;;;13.01;63.98
70976;BME280;58635;51.198;6.010;2023-03-14T04:21:05;98852.09;;;13.00;64.20
70976;BME280;58635;51.198;6.010;2023-03-14T04:23:30;98846.66;;;12.97;64.18
70976;BME280;58635;51.198;6.010;2023-03-14T04:25:56;98852.09;;;12.95;64.32
70976;BME280;58635;51.198;6.010;2023-03-14T04:28:21;98846.88;;;12.90;64.24
70976;BME280;58635;51.198;6.010;2023-03-14T04:30:46;98839.63;;;12.92;64.49
70976;BME280;58635;51.198;6.010;2023-03-14T04:33:12;98848.47;;;12.96;64.47
70976;BME280;58635;51.198;6.010;2023-03-14T04:35:42;98846.91;;;13.00;64.55
70976;BME280;58635;51.198;6.010;2023-03-14T04:38:08;98834.47;;;13.02;64.53
70976;BME280;58635;51.198;6.010;2023-03-14T04:40:33;98843.28;;;13.01;64.51
70976;BME280;58635;51.198;6.010;2023-03-14T04:42:58;98836.03;;;13.03;64.49
70976;BME280;58635;51.198;6.010;2023-03-14T04:45:24;98830.31;;;13.06;64.54
70976;BME280;58635;51.198;6.010;2023-03-14T04:47:49;98820.72;;;13.07;64.35
70976;BME280;58635;51.198;6.010;2023-03-14T04:50:15;98823.84;;;13.09;64.53
70976;BME280;58635;51.198;6.010;2023-03-14T04:52:40;98825.38;;;13.10;64.77
70976;BME280;58635;51.198;6.010;2023-03-14T04:55:05;98823.56;;;13.10;64.80
70976;BME280;58635;51.198;6.010;2023-03-14T04:57:31;98817.06;;;13.13;64.77
70976;BME280;58635;51.198;6.010;2023-03-14T04:59:56;98804.66;;;13.15;64.69
70976;BME280;58635;51.198;6.010;2023-03-14T05:02:22;98811.13;;;13.17;64.66
70976;BME280;58635;51.198;6.010;2023-03-14T05:04:47;98803.63;;;13.21;64.75
70976;BME280;58635;51.198;6.010;2023-03-14T05:07:12;98798.94;;;13.23;64.86
70976;BME280;58635;51.198;6.010;2023-03-14T05:09:38;98795.56;;;13.23;64.86
70976;BME280;58635;51.198;6.010;2023-03-14T05:12:03;98798.19;;;13.23;65.05
70976;BME280;58635;51.198;6.010;2023-03-14T05:14:29;98787.28;;;13.21;65.30
70976;BME280;58635;51.198;6.010;2023-03-14T05:16:55;98791.69;;;13.20;65.26
70976;BME280;58635;51.198;6.010;2023-03-14T05:19:20;98792.19;;;13.22;65.46
70976;BME280;58635;51.198;6.010;2023-03-14T05:21:46;98790.13;;;13.19;65.49
70976;BME280;58635;51.198;6.010;2023-03-14T05:24:11;98788.53;;;13.18;65.61
70976;BME280;58635;51.198;6.010;2023-03-14T05:26:37;98786.75;;;13.19;65.91
70976;BME280;58635;51.198;6.010;2023-03-14T05:29:02;98787.78;;;13.17;65.89
70976;BME280;58635;51.198;6.010;2023-03-14T05:31:27;98781.56;;;13.19;65.66
70976;BME280;58635;51.198;6.010;2023-03-14T05:33:53;98774.56;;;13.19;65.77
70976;BME280;58635;51.198;6.010;2023-03-14T05:36:18;98767.28;;;13.21;65.63
70976;BME280;58635;51.198;6.010;2023-03-14T05:38:44;98771.44;;;13.22;65.65
70976;BME280;58635;51.198;6.010;2023-03-14T05:41:09;98775.84;;;13.22;65.76
70976;BME280;58635;51.198;6.010;2023-03-14T05:43:34;98768.31;;;13.20;65.74
70976;BME280;58635;51.198;6.010;2023-03-14T05:46:00;98762.09;;;13.21;65.79
70976;BME280;58635;51.198;6.010;2023-03-14T05:48:25;98774.03;;;13.22;65.90
70976;BME280;58635;51.198;6.010;2023-03-14T05:50:55;98777.94;;;13.20;66.01
70976;BME280;58635;51.198;6.010;2023-03-14T05:53:21;98779.22;;;13.17;66.01
70976;BME280;58635;51.198;6.010;2023-03-14T05:55:47;98783.34;;;13.13;66.32
70976;BME280;58635;51.198;6.010;2023-03-14T05:58:12;98782.81;;;13.11;66.46
70976;BME280;58635;51.198;6.010;2023-03-14T06:00:37;98774.25;;;13.10;66.43
70976;BME280;58635;51.198;6.010;2023-03-14T06:03:03;98779.72;;;13.09;66.51
70976;BME280;58635;51.198;6.010;2023-03-14T06:05:28;98771.41;;;13.07;66.64
70976;BME280;58635;51.198;6.010;2023-03-14T06:07:54;98775.28;;;13.09;66.70
70976;BME280;58635;51.198;6.010;2023-03-14T06:10:19;98774.53;;;13.09;66.54
70976;BME280;58635;51.198;6.010;2023-03-14T06:12:44;98776.09;;;13.05;66.65
70976;BME280;58635;51.198;6.010;2023-03-14T06:15:10;98777.13;;;13.04;66.98
70976;BME280;58635;51.198;6.010;2023-03-14T06:17:36;98781.00;;;13.06;66.64
70976;BME280;58635;51.198;6.010;2023-03-14T06:20:01;98774.00;;;13.07;66.83
70976;BME280;58635;51.198;6.010;2023-03-14T06:22:26;98774.00;;;13.07;66.85
70976;BME280;58635;51.198;6.010;2023-03-14T06:24:52;98775.31;;;13.04;67.15
70976;BME280;58635;51.198;6.010;2023-03-14T06:27:17;98773.47;;;13.05;66.90
70976;BME280;58635;51.198;6.010;2023-03-14T06:29:43;98769.59;;;13.07;66.70
70976;BME280;58635;51.198;6.010;2023-03-14T06:32:08;98775.03;;;13.11;66.74
70976;BME280;58635;51.198;6.010;2023-03-14T06:34:34;98770.13;;;13.14;66.42
70976;BME280;58635;51.198;6.010;2023-03-14T06:36:59;98769.59;;;13.17;66.35
70976;BME280;58635;51.198;6.010;2023-03-14T06:39:25;98767.28;;;13.21;66.52
70976;BME280;58635;51.198;6.010;2023-03-14T06:41:50;98771.44;;;13.22;66.38
70976;BME280;58635;51.198;6.010;2023-03-14T06:44:15;98770.91;;;13.25;66.40
70976;BME280;58635;51.198;6.010;2023-03-14T06:46:41;98771.69;;;13.26;66.35
70976;BME280;58635;51.198;6.010;2023-03-14T06:49:06;98774.31;;;13.31;66.37
70976;BME280;58635;51.198;6.010;2023-03-14T06:51:32;98779.75;;;13.34;66.29
70976;BME280;58635;51.198;6.010;2023-03-14T06:53:57;98780.78;;;13.33;66.39
70976;BME280;58635;51.198;6.010;2023-03-14T06:56:22;98772.50;;;13.31;66.36
70976;BME280;58635;51.198;6.010;2023-03-14T06:58:48;98783.66;;;13.32;66.42
70976;BME280;58635;51.198;6.010;2023-03-14T07:01:24;98785.19;;;13.33;66.73
70976;BME280;58635;51.198;6.010;2023-03-14T07:03:50;98793.25;;;13.31;66.83
70976;BME280;58635;51.198;6.010;2023-03-14T07:06:15;98787.03;;;13.32;66.80
70976;BME280;58635;51.198;6.010;2023-03-14T07:08:41;98790.91;;;13.35;66.83
70976;BME280;58635;51.198;6.010;2023-03-14T07:11:07;98795.06;;;13.36;66.95
70976;BME280;58635;51.198;6.010;2023-03-14T07:13:32;98790.13;;;13.34;66.93
70976;BME280;58635;51.198;6.010;2023-03-14T07:15:58;98792.22;;;13.32;66.97
70976;BME280;58635;51.198;6.010;2023-03-14T07:18:23;98798.19;;;13.33;67.32
70976;BME280;58635;51.198;6.010;2023-03-14T07:20:48;98800.78;;;13.33;67.23
70976;BME280;58635;51.198;6.010;2023-03-14T07:23:14;98807.25;;;13.35;67.15
70976;BME280;58635;51.198;6.010;2023-03-14T07:25:39;98808.56;;;13.43;67.13
70976;BME280;58635;51.198;6.010;2023-03-14T07:28:05;98807.28;;;13.45;67.11
70976;BME280;58635;51.198;6.010;2023-03-14T07:30:30;98808.31;;;13.50;67.01
70976;BME280;58635;51.198;6.010;2023-03-14T07:32:55;98811.44;;;13.52;66.74
70976;BME280;58635;51.198;6.010;2023-03-14T07:35:21;98812.97;;;13.58;66.68
70976;BME280;58635;51.198;6.010;2023-03-14T07:37:46;98814.56;;;13.64;66.53
70976;BME280;58635;51.198;6.010;2023-03-14T07:40:12;98828.31;;;13.69;66.34
70976;BME280;58635;51.198;6.010;2023-03-14T07:42:41;98820.25;;;13.71;66.30
70976;BME280;58635;51.198;6.010;2023-03-14T07:45:07;98818.69;;;13.75;66.40
70976;BME280;58635;51.198;6.010;2023-03-14T07:47:33;98827.53;;;13.79;66.39
70976;BME280;58635;51.198;6.010;2023-03-14T07:49:58;98829.31;;;13.84;66.00
70976;BME280;58635;51.198;6.010;2023-03-14T07:52:24;98827.50;;;13.89;65.99
70976;BME280;58635;51.198;6.010;2023-03-14T07:54:49;98826.97;;;13.92;65.95
70976;BME280;58635;51.198;6.010;2023-03-14T07:57:14;98840.00;;;13.97;65.74
70976;BME280;58635;51.198;6.010;2023-03-14T07:59:40;98856.88;;;14.00;65.92
70976;BME280;58635;51.198;6.010;2023-03-14T08:02:05;98853.75;;;13.98;66.02
70976;BME280;58635;51.198;6.010;2023-03-14T08:04:36;98858.69;;;13.99;66.23
70976;BME280;58635;51.198;6.010;2023-03-14T08:07:01;98870.38;;;13.97;66.36
70976;BME280;58635;51.198;6.010;2023-03-14T08:09:27;98868.81;;;13.96;66.29
70976;BME280;58635;51.198;6.010;2023-03-14T08:11:52;98868.03;;;13.95;66.18
70976;BME280;58635;51.198;6.010;2023-03-14T08:14:18;98865.16;;;13.97;66.20
70976;BME280;58635;51.198;6.010;2023-03-14T08:16:43;98873.50;;;13.99;66.14
70976;BME280;58635;51.198;6.010;2023-03-14T08:19:08;98880.75;;;13.97;66.16
70976;BME280;58635;51.198;6.010;2023-03-14T08:21:37;98887.78;;;13.96;66.42
70976;BME280;58635;51.198;6.010;2023-03-14T08:24:02;98889.59;;;13.96;66.23
70976;BME280;58635;51.198;6.010;2023-03-14T08:26:28;98901.31;;;13.98;65.84
70976;BME280;58635;51.198;6.010;2023-03-14T08:28:53;98930.69;;;13.99;65.64
70976;BME280;58635;51.198;6.010;2023-03-14T08:31:18;98955.63;;;13.90;65.41
70976;BME280;58635;51.198;6.010;2023-03-14T08:33:44;98968.09;;;13.83;65.05
70976;BME280;58635;51.198;6.010;2023-03-14T08:36:09;98985.50;;;13.82;64.88
70976;BME280;58635;51.198;6.010;2023-03-14T08:38:35;98996.97;;;13.86;64.40
70976;BME280;58635;51.198;6.010;2023-03-14T08:41:02;99009.66;;;13.83;63.22
70976;BME280;58635;51.198;6.010;2023-03-14T08:43:29;99013.28;;;13.71;62.69
70976;BME280;58635;51.198;6.010;2023-03-14T08:45:57;99030.69;;;13.66;62.43
70976;BME280;58635;51.198;6.010;2023-03-14T08:48:23;99034.84;;;13.62;62.48
70976;BME280;58635;51.198;6.010;2023-03-14T08:50:49;99042.88;;;13.60;62.34
70976;BME280;58635;51.198;6.010;2023-03-14T08:53:14;99064.16;;;13.57;62.22
70976;BME280;58635;51.198;6.010;2023-03-14T08:55:40;99066.25;;;13.55;62.29
70976;BME280;58635;51.198;6.010;2023-03-14T08:58:05;99082.59;;;13.51;62.05
70976;BME280;58635;51.198;6.010;2023-03-14T09:00:31;99091.13;;;13.46;62.07
70976;BME280;58635;51.198;6.010;2023-03-14T09:02:56;99102.03;;;13.43;62.25
70976;BME280;58635;51.198;6.010;2023-03-14T09:05:21;99104.31;;;13.34;62.28
70976;BME280;58635;51.198;6.010;2023-03-14T09:07:47;99113.66;;;13.30;62.35
70976;BME280;58635;51.198;6.010;2023-03-14T09:10:12;99116.97;;;13.26;62.46
70976;BME280;58635;51.198;6.010;2023-03-14T09:12:38;99125.78;;;13.20;62.38
70976;BME280;58635;51.198;6.010;2023-03-14T09:15:04;99132.50;;;13.15;62.26
70976;BME280;58635;51.198;6.010;2023-03-14T09:17:29;99142.28;;;13.08;62.22
70976;BME280;58635;51.198;6.010;2023-03-14T09:19:55;99148.00;;;13.05;62.36
70976;BME280;58635;51.198;6.010;2023-03-14T09:22:20;99159.06;;;12.96;62.08
70976;BME280;58635;51.198;6.010;2023-03-14T09:24:46;99177.50;;;12.94;61.77
70976;BME280;58635;51.198;6.010;2023-03-14T09:27:11;99192.22;;;12.88;61.73
70976;BME280;58635;51.198;6.010;2023-03-14T09:29:37;99202.06;;;12.86;61.85
70976;BME280;58635;51.198;6.010;2023-03-14T09:32:02;99206.47;;;12.86;61.85
70976;BME280;58635;51.198;6.010;2023-03-14T09:34:28;99212.50;;;12.92;61.45
70976;BME280;58635;51.198;6.010;2023-03-14T09:36:54;99226.03;;;12.94;61.61
70976;BME280;58635;51.198;6.010;2023-03-14T09:39:19;99245.00;;;12.99;61.23
70976;BME280;58635;51.198;6.010;2023-03-14T09:41:50;99250.00;;;13.06;61.27
70976;BME280;58635;51.198;6.010;2023-03-14T09:44:30;99257.78;;;13.06;60.87
70976;BME280;58635;51.198;6.010;2023-03-14T09:47:00;99258.31;;;13.08;60.90
70976;BME280;58635;51.198;6.010;2023-03-14T09:49:31;99273.09;;;13.07;60.85
70976;BME280;58635;51.198;6.010;2023-03-14T09:52:00;99277.78;;;13.05;61.11
70976;BME280;58635;51.198;6.010;2023-03-14T09:55:16;99279.84;;;13.03;61.00
70976;BME280;58635;51.198;6.010;2023-03-14T09:57:22;99295.59;;;12.97;61.09
70976;BME280;58635;51.198;6.010;2023-03-14T09:59:49;99303.38;;;12.97;61.29
70976;BME280;58635;51.198;6.010;2023-03-14T10:02:24;99318.94;;;12.97;61.26
70976;BME280;58635;51.198;6.010;2023-03-14T10:04:52;99315.56;;;12.96;61.51
70976;BME280;58635;51.198;6.010;2023-03-14T10:07:29;99325.00;;;13.02;61.49
70976;BME280;58635;51.198;6.010;2023-03-14T10:09:56;99331.00;;;13.08;61.45
70976;BME280;58635;51.198;6.010;2023-03-14T10:12:34;99340.22;;;13.21;61.42
70976;BME280;58635;51.198;6.010;2023-03-14T10:15:04;99339.94;;;13.44;61.31
70976;BME280;58635;51.198;6.010;2023-03-14T10:17:38;99352.59;;;13.67;60.89
70976;BME280;58635;51.198;6.010;2023-03-14T10:20:04;99378.41;;;13.79;60.58
70976;BME280;58635;51.198;6.010;2023-03-14T10:22:31;99376.59;;;13.85;60.11
70976;BME280;58635;51.198;6.010;2023-03-14T10:25:02;99371.47;;;13.90;59.79
70976;BME280;58635;51.198;6.010;2023-03-14T10:27:31;99387.13;;;14.00;59.76
70976;BME280;58635;51.198;6.010;2023-03-14T10:30:00;99395.75;;;14.05;59.81
70976;BME280;58635;51.198;6.010;2023-03-14T10:32:45;99408.50;;;14.07;59.46
70976;BME280;58635;51.198;6.010;2023-03-14T10:37:54;99430.22;;;13.91;59.30
70976;BME280;58635;51.198;6.010;2023-03-14T10:40:26;99479.75;;;13.79;59.38
70976;BME280;58635;51.198;6.010;2023-03-14T10:42:52;99491.47;;;13.55;59.16
70976;BME280;58635;51.198;6.010;2023-03-14T10:48:15;99528.81;;;13.10;58.97
70976;BME280;58635;51.198;6.010;2023-03-14T10:53:17;99539.69;;;12.90;58.23
70976;BME280;58635;51.198;6.010;2023-03-14T10:55:44;99542.47;;;12.83;58.06
70976;BME280;58635;51.198;6.010;2023-03-14T10:58:21;99557.50;;;12.81;58.19
70976;BME280;58635;51.198;6.010;2023-03-14T11:00:53;99570.22;;;12.83;57.79
70976;BME280;58635;51.198;6.010;2023-03-14T11:03:21;99582.25;;;12.72;58.00
70976;BME280;58635;51.198;6.010;2023-03-14T11:06:07;99587.06;;;12.80;58.22
70976;BME280;58635;51.198;6.010;2023-03-14T11:11:22;99599.63;;;13.05;57.45
70976;BME280;58635;51.198;6.010;2023-03-14T11:16:46;99626.53;;;13.16;57.47
70976;BME280;58635;51.198;6.010;2023-03-14T11:19:38;99627.16;;;13.23;57.37
70976;BME280;58635;51.198;6.010;2023-03-14T11:22:16;99627.47;;;13.27;57.00
70976;BME280;58635;51.198;6.010;2023-03-14T11:24:54;99632.03;;;13.20;56.52
70976;BME280;58635;51.198;6.010;2023-03-14T11:27:28;99647.53;;;13.14;55.96
70976;BME280;58635;51.198;6.010;2023-03-14T11:30:05;99653.91;;;13.07;55.62
70976;BME280;58635;51.198;6.010;2023-03-14T11:35:34;99691.56;;;13.09;54.91
70976;BME280;58635;51.198;6.010;2023-03-14T11:38:10;99688.66;;;13.06;54.37
70976;BME280;58635;51.198;6.010;2023-03-14T11:40:38;99695.56;;;13.00;54.69
70976;BME280;58635;51.198;6.010;2023-03-14T11:43:17;99703.53;;;12.94;54.24
70976;BME280;58635;51.198;6.010;2023-03-14T11:45:47;99713.13;;;12.93;54.28
70976;BME280;58635;51.198;6.010;2023-03-14T11:48:28;99734.06;;;13.03;53.99
70976;BME280;58635;51.198;6.010;2023-03-14T11:50:59;99732.63;;;13.12;53.34
70976;BME280;58635;51.198;6.010;2023-03-14T11:59:01;99755.25;;;13.62;51.22
70976;BME280;58635;51.198;6.010;2023-03-14T12:01:38;99758.72;;;13.68;50.37
70976;BME280;58635;51.198;6.010;2023-03-14T12:04:15;99781.56;;;13.66;50.49
70976;BME280;58635;51.198;6.010;2023-03-14T12:06:50;99777.19;;;13.71;50.81
70976;BME280;58635;51.198;6.010;2023-03-14T12:09:20;99785.31;;;13.75;50.49
70976;BME280;58635;51.198;6.010;2023-03-14T12:11:53;99787.03;;;13.86;50.25
70976;BME280;58635;51.198;6.010;2023-03-14T12:14:33;99796.06;;;14.00;50.62
70976;BME280;58635;51.198;6.010;2023-03-14T12:17:07;99796.28;;;14.16;49.11
70976;BME280;58635;51.198;6.010;2023-03-14T12:19:43;99806.81;;;14.26;49.75
70976;BME280;58635;51.198;6.010;2023-03-14T12:22:25;99811.41;;;14.41;49.56
70976;BME280;58635;51.198;6.010;2023-03-14T12:25:14;99804.28;;;14.53;49.62
70976;BME280;58635;51.198;6.010;2023-03-14T12:38:14;99901.94;;;13.71;50.75
70976;BME280;58635;51.198;6.010;2023-03-14T12:43:36;99900.59;;;13.24;51.33
70976;BME280;58635;51.198;6.010;2023-03-14T12:48:45;99913.63;;;13.00;51.17
70976;BME280;58635;51.198;6.010;2023-03-14T12:51:19;99924.03;;;12.88;51.91
70976;BME280;58635;51.198;6.010;2023-03-14T12:59:34;99929.84;;;12.67;52.56
70976;BME280;58635;51.198;6.010;2023-03-14T13:04:50;99943.13;;;12.59;53.21
70976;BME280;58635;51.198;6.010;2023-03-14T13:08:01;99948.19;;;12.66;53.32
70976;BME280;58635;51.198;6.010;2023-03-14T13:10:30;99956.66;;;12.84;53.42
70976;BME280;58635;51.198;6.010;2023-03-14T13:13:03;99959.31;;;13.01;53.19
70976;BME280;58635;51.198;6.010;2023-03-14T13:15:43;99988.31;;;13.10;53.36
70976;BME280;58635;51.198;6.010;2023-03-14T13:20:40;99996.00;;;13.05;52.69
70976;BME280;58635;51.198;6.010;2023-03-14T13:23:20;99988.56;;;12.97;52.99
70976;BME280;58635;51.198;6.010;2023-03-14T13:25:45;99978.84;;;13.04;53.07
70976;BME280;58635;51.198;6.010;2023-03-14T13:28:11;99985.25;;;13.13;52.52
70976;BME280;58635;51.198;6.010;2023-03-14T13:30:40;99991.69;;;13.22;52.34
70976;BME280;58635;51.198;6.010;2023-03-14T13:33:12;99991.91;;;13.32;51.54
70976;BME280;58635;51.198;6.010;2023-03-14T13:35:47;99990.41;;;13.36;51.42
70976;BME280;58635;51.198;6.010;2023-03-14T13:38:17;99995.06;;;13.34;50.95
70976;BME280;58635;51.198;6.010;2023-03-14T13:40:43;99997.44;;;13.24;50.71
70976;BME280;58635;51.198;6.010;2023-03-14T13:43:30;99997.69;;;13.11;50.89
70976;BME280;58635;51.198;6.010;2023-03-14T13:46:02;100011.03;;;13.03;50.88
70976;BME280;58635;51.198;6.010;2023-03-14T13:48:29;100006.63;;;12.92;51.17
70976;BME280;58635;51.198;6.010;2023-03-14T13:51:03;100017.91;;;12.85;50.91
70976;BME280;58635;51.198;6.010;2023-03-14T13:53:30;100037.66;;;12.75;51.14
70976;BME280;58635;51.198;6.010;2023-03-14T13:55:55;100031.34;;;12.71;51.09
70976;BME280;58635;51.198;6.010;2023-03-14T13:58:26;100051.88;;;12.72;51.29
70976;BME280;58635;51.198;6.010;2023-03-14T14:01:19;100060.22;;;12.74;50.95